sensor_id;sensor_type;location;lat;lon;timestamp;temperature;humidity
69359;HTU21D;56520;49.066;8.660;2022-07-29T00:00:34;21.33;63.81
69359;HTU21D;56520;49.066;8.660;2022-07-29T00:02:59;21.31;64.30
69359;HTU21D;56520;49.066;8.660;2022-07-29T00:05:25;21.27;64.17
69359;HTU21D;56520;49.066;8.660;2022-07-29T00:07:50;21.24;65.04
69359;HTU21D;56520;49.066;8.660;2022-07-29T00:10:15;21.22;64.79
69359;HTU21D;56520;49.066;8.660;2022-07-29T00:12:41;21.19;65.67
69359;HTU21D;56520;49.066;8.660;2022-07-29T00:15:07;21.13;65.27
69359;HTU21D;56520;49.066;8.660;2022-07-29T00:17:32;21.09;65.17
69359;HTU21D;56520;49.066;8.660;2022-07-29T00:19:59;21.09;65.30
69359;HTU21D;56520;49.066;8.660;2022-07-29T00:22:24;21.05;65.43
69359;HTU21D;56520;49.066;8.660;2022-07-29T00:24:50;21.03;65.51
69359;HTU21D;56520;49.066;8.660;2022-07-29T00:27:16;20.98;65.68
69359;HTU21D;56520;49.066;8.660;2022-07-29T00:29:42;20.96;65.82
69359;HTU21D;56520;49.066;8.660;2022-07-29T00:32:07;20.91;66.20
69359;HTU21D;56520;49.066;8.660;2022-07-29T00:34:33;20.88;66.53
69359;HTU21D;56520;49.066;8.660;2022-07-29T00:37:17;20.86;66.53
69359;HTU21D;56520;49.066;8.660;2022-07-29T00:39:43;20.86;67.07
69359;HTU21D;56520;49.066;8.660;2022-07-29T00:42:08;20.86;66.96
69359;HTU21D;56520;49.066;8.660;2022-07-29T00:44:39;20.86;67.22
69359;HTU21D;56520;49.066;8.660;2022-07-29T00:47:05;20.85;67.72
69359;HTU21D;56520;49.066;8.660;2022-07-29T00:49:31;20.85;67.83
69359;HTU21D;56520;49.066;8.660;2022-07-29T00:51:57;20.83;67.77
69359;HTU21D;56520;49.066;8.660;2022-07-29T00:54:22;20.80;67.93
69359;HTU21D;56520;49.066;8.660;2022-07-29T00:56:49;20.79;67.86
69359;HTU21D;56520;49.066;8.660;2022-07-29T00:59:14;20.77;68.00
69359;HTU21D;56520;49.066;8.660;2022-07-29T01:01:40;20.77;68.37
69359;HTU21D;56520;49.066;8.660;2022-07-29T01:04:06;20.76;68.56
69359;HTU21D;56520;49.066;8.660;2022-07-29T01:06:32;20.75;68.42
69359;HTU21D;56520;49.066;8.660;2022-07-29T01:08:58;20.76;68.32
69359;HTU21D;56520;49.066;8.660;2022-07-29T01:11:24;20.76;68.42
69359;HTU21D;56520;49.066;8.660;2022-07-29T01:13:51;20.76;68.94
69359;HTU21D;56520;49.066;8.660;2022-07-29T01:16:25;20.75;69.79
69359;HTU21D;56520;49.066;8.660;2022-07-29T01:19:06;20.72;69.81
69359;HTU21D;56520;49.066;8.660;2022-07-29T01:24:39;20.69;69.35
69359;HTU21D;56520;49.066;8.660;2022-07-29T01:29:45;20.69;69.47
69359;HTU21D;56520;49.066;8.660;2022-07-29T01:32:16;20.70;69.36
69359;HTU21D;56520;49.066;8.660;2022-07-29T01:37:34;20.69;69.43
69359;HTU21D;56520;49.066;8.660;2022-07-29T01:40:03;20.64;69.62
69359;HTU21D;56520;49.066;8.660;2022-07-29T01:42:39;20.63;69.61
69359;HTU21D;56520;49.066;8.660;2022-07-29T01:45:37;20.59;69.58
69359;HTU21D;56520;49.066;8.660;2022-07-29T01:48:14;20.56;69.71
69359;HTU21D;56520;49.066;8.660;2022-07-29T01:50:50;20.54;69.86
69359;HTU21D;56520;49.066;8.660;2022-07-29T01:53:25;20.51;69.92
69359;HTU21D;56520;49.066;8.660;2022-07-29T01:55:52;20.47;70.02
69359;HTU21D;56520;49.066;8.660;2022-07-29T01:58:20;20.44;70.22
69359;HTU21D;56520;49.066;8.660;2022-07-29T02:00:47;20.41;70.29
69359;HTU21D;56520;49.066;8.660;2022-07-29T02:03:14;20.40;70.52
69359;HTU21D;56520;49.066;8.660;2022-07-29T02:05:44;20.40;70.80
69359;HTU21D;56520;49.066;8.660;2022-07-29T02:08:11;20.35;70.64
69359;HTU21D;56520;49.066;8.660;2022-07-29T02:10:39;20.36;70.62
69359;HTU21D;56520;49.066;8.660;2022-07-29T02:13:05;20.36;70.68
69359;HTU21D;56520;49.066;8.660;2022-07-29T02:15:33;20.35;70.73
69359;HTU21D;56520;49.066;8.660;2022-07-29T02:18:09;20.34;70.81
69359;HTU21D;56520;49.066;8.660;2022-07-29T02:20:37;20.31;71.10
69359;HTU21D;56520;49.066;8.660;2022-07-29T02:23:04;20.25;71.18
69359;HTU21D;56520;49.066;8.660;2022-07-29T02:25:30;20.19;71.23
69359;HTU21D;56520;49.066;8.660;2022-07-29T02:27:58;20.13;71.42
69359;HTU21D;56520;49.066;8.660;2022-07-29T02:30:25;20.06;71.61
69359;HTU21D;56520;49.066;8.660;2022-07-29T02:32:51;20.02;71.85
69359;HTU21D;56520;49.066;8.660;2022-07-29T02:35:18;19.96;71.98
69359;HTU21D;56520;49.066;8.660;2022-07-29T02:37:45;19.89;72.12
69359;HTU21D;56520;49.066;8.660;2022-07-29T02:40:34;19.82;72.33
69359;HTU21D;56520;49.066;8.660;2022-07-29T02:43:01;19.76;72.48
69359;HTU21D;56520;49.066;8.660;2022-07-29T02:45:28;19.69;72.71
69359;HTU21D;56520;49.066;8.660;2022-07-29T02:47:57;19.62;72.91
69359;HTU21D;56520;49.066;8.660;2022-07-29T02:50:33;19.57;72.87
69359;HTU21D;56520;49.066;8.660;2022-07-29T02:53:09;19.50;73.06
69359;HTU21D;56520;49.066;8.660;2022-07-29T02:55:43;19.45;73.55
69359;HTU21D;56520;49.066;8.660;2022-07-29T02:58:20;19.40;73.66
69359;HTU21D;56520;49.066;8.660;2022-07-29T03:00:48;19.38;73.70
69359;HTU21D;56520;49.066;8.660;2022-07-29T03:03:17;19.33;73.97
69359;HTU21D;56520;49.066;8.660;2022-07-29T03:05:43;19.32;74.20
69359;HTU21D;56520;49.066;8.660;2022-07-29T03:08:11;19.29;74.25
69359;HTU21D;56520;49.066;8.660;2022-07-29T03:10:39;19.27;74.42
69359;HTU21D;56520;49.066;8.660;2022-07-29T03:13:08;19.23;74.50
69359;HTU21D;56520;49.066;8.660;2022-07-29T03:15:34;19.20;74.86
69359;HTU21D;56520;49.066;8.660;2022-07-29T03:18:00;19.16;74.99
69359;HTU21D;56520;49.066;8.660;2022-07-29T03:20:27;19.14;75.45
69359;HTU21D;56520;49.066;8.660;2022-07-29T03:22:52;19.07;75.15
69359;HTU21D;56520;49.066;8.660;2022-07-29T03:25:19;19.00;75.37
69359;HTU21D;56520;49.066;8.660;2022-07-29T03:27:45;18.91;76.31
69359;HTU21D;56520;49.066;8.660;2022-07-29T03:30:12;18.76;77.34
69359;HTU21D;56520;49.066;8.660;2022-07-29T03:32:38;18.63;77.56
69359;HTU21D;56520;49.066;8.660;2022-07-29T03:35:05;18.55;77.89
69359;HTU21D;56520;49.066;8.660;2022-07-29T03:37:31;18.47;78.08
69359;HTU21D;56520;49.066;8.660;2022-07-29T03:39:57;18.43;78.34
69359;HTU21D;56520;49.066;8.660;2022-07-29T03:42:25;18.44;77.97
69359;HTU21D;56520;49.066;8.660;2022-07-29T03:44:53;18.46;77.69
69359;HTU21D;56520;49.066;8.660;2022-07-29T03:47:23;18.48;77.59
69359;HTU21D;56520;49.066;8.660;2022-07-29T03:49:52;18.49;77.56
69359;HTU21D;56520;49.066;8.660;2022-07-29T03:52:19;18.47;77.85
69359;HTU21D;56520;49.066;8.660;2022-07-29T03:54:45;18.49;77.80
69359;HTU21D;56520;49.066;8.660;2022-07-29T03:57:11;18.50;77.80
69359;HTU21D;56520;49.066;8.660;2022-07-29T03:59:37;18.50;77.69
69359;HTU21D;56520;49.066;8.660;2022-07-29T04:02:04;18.51;77.74
69359;HTU21D;56520;49.066;8.660;2022-07-29T04:04:34;18.51;77.84
69359;HTU21D;56520;49.066;8.660;2022-07-29T04:06:59;18.51;77.91
69359;HTU21D;56520;49.066;8.660;2022-07-29T04:09:25;18.50;77.98
69359;HTU21D;56520;49.066;8.660;2022-07-29T04:11:50;18.51;78.17
69359;HTU21D;56520;49.066;8.660;2022-07-29T04:14:16;18.54;78.18
69359;HTU21D;56520;49.066;8.660;2022-07-29T04:16:42;18.55;78.16
69359;HTU21D;56520;49.066;8.660;2022-07-29T04:19:07;18.57;78.11
69359;HTU21D;56520;49.066;8.660;2022-07-29T04:21:37;18.59;78.15
69359;HTU21D;56520;49.066;8.660;2022-07-29T04:24:03;18.58;77.79
69359;HTU21D;56520;49.066;8.660;2022-07-29T04:26:29;18.56;77.60
69359;HTU21D;56520;49.066;8.660;2022-07-29T04:28:54;18.50;77.62
69359;HTU21D;56520;49.066;8.660;2022-07-29T04:31:19;18.46;77.69
69359;HTU21D;56520;49.066;8.660;2022-07-29T04:33:46;18.42;77.77
69359;HTU21D;56520;49.066;8.660;2022-07-29T04:36:11;18.39;77.95
69359;HTU21D;56520;49.066;8.660;2022-07-29T04:38:37;18.36;78.05
69359;HTU21D;56520;49.066;8.660;2022-07-29T04:41:03;18.35;78.05
69359;HTU21D;56520;49.066;8.660;2022-07-29T04:43:28;18.32;78.16
69359;HTU21D;56520;49.066;8.660;2022-07-29T04:45:54;18.28;78.21
69359;HTU21D;56520;49.066;8.660;2022-07-29T04:48:19;18.27;78.30
69359;HTU21D;56520;49.066;8.660;2022-07-29T04:50:44;18.25;78.47
69359;HTU21D;56520;49.066;8.660;2022-07-29T04:53:10;18.26;78.55
69359;HTU21D;56520;49.066;8.660;2022-07-29T04:55:35;18.26;78.76
69359;HTU21D;56520;49.066;8.660;2022-07-29T04:58:01;18.29;78.68
69359;HTU21D;56520;49.066;8.660;2022-07-29T05:00:27;18.33;78.63
69359;HTU21D;56520;49.066;8.660;2022-07-29T05:02:52;18.36;78.69
69359;HTU21D;56520;49.066;8.660;2022-07-29T05:05:18;18.39;78.66
69359;HTU21D;56520;49.066;8.660;2022-07-29T05:07:43;18.46;78.66
69359;HTU21D;56520;49.066;8.660;2022-07-29T05:10:09;18.53;78.63
69359;HTU21D;56520;49.066;8.660;2022-07-29T05:12:34;18.58;78.66
69359;HTU21D;56520;49.066;8.660;2022-07-29T05:15:00;18.65;78.56
69359;HTU21D;56520;49.066;8.660;2022-07-29T05:17:25;18.72;78.56
69359;HTU21D;56520;49.066;8.660;2022-07-29T05:19:51;18.79;78.59
69359;HTU21D;56520;49.066;8.660;2022-07-29T05:22:18;18.84;78.61
69359;HTU21D;56520;49.066;8.660;2022-07-29T05:24:44;18.87;78.60
69359;HTU21D;56520;49.066;8.660;2022-07-29T05:27:09;18.94;78.42
69359;HTU21D;56520;49.066;8.660;2022-07-29T05:29:35;18.99;78.50
69359;HTU21D;56520;49.066;8.660;2022-07-29T05:32:01;19.07;78.76
69359;HTU21D;56520;49.066;8.660;2022-07-29T05:34:26;19.12;78.47
69359;HTU21D;56520;49.066;8.660;2022-07-29T05:36:52;19.22;78.27
69359;HTU21D;56520;49.066;8.660;2022-07-29T05:39:17;19.29;78.14
69359;HTU21D;56520;49.066;8.660;2022-07-29T05:41:43;19.40;78.08
69359;HTU21D;56520;49.066;8.660;2022-07-29T05:44:08;19.50;77.99
69359;HTU21D;56520;49.066;8.660;2022-07-29T05:46:34;19.58;77.99
69359;HTU21D;56520;49.066;8.660;2022-07-29T05:48:59;19.67;77.88
69359;HTU21D;56520;49.066;8.660;2022-07-29T05:51:25;19.79;77.58
69359;HTU21D;56520;49.066;8.660;2022-07-29T05:53:50;19.89;77.51
69359;HTU21D;56520;49.066;8.660;2022-07-29T05:56:15;20.00;77.27
69359;HTU21D;56520;49.066;8.660;2022-07-29T05:58:41;20.12;77.05
69359;HTU21D;56520;49.066;8.660;2022-07-29T06:01:06;20.25;76.76
69359;HTU21D;56520;49.066;8.660;2022-07-29T06:03:32;20.39;76.44
69359;HTU21D;56520;49.066;8.660;2022-07-29T06:05:57;20.56;74.62
69359;HTU21D;56520;49.066;8.660;2022-07-29T06:08:23;20.77;72.28
69359;HTU21D;56520;49.066;8.660;2022-07-29T06:10:48;20.91;71.80
69359;HTU21D;56520;49.066;8.660;2022-07-29T06:13:14;21.05;70.77
69359;HTU21D;56520;49.066;8.660;2022-07-29T06:15:41;21.18;69.25
69359;HTU21D;56520;49.066;8.660;2022-07-29T06:18:07;21.24;68.97
69359;HTU21D;56520;49.066;8.660;2022-07-29T06:20:34;21.29;69.26
69359;HTU21D;56520;49.066;8.660;2022-07-29T06:23:00;21.36;69.39
69359;HTU21D;56520;49.066;8.660;2022-07-29T06:25:26;21.46;69.38
69359;HTU21D;56520;49.066;8.660;2022-07-29T06:27:54;21.53;68.71
69359;HTU21D;56520;49.066;8.660;2022-07-29T06:30:20;21.62;68.24
69359;HTU21D;56520;49.066;8.660;2022-07-29T06:32:45;21.65;67.35
69359;HTU21D;56520;49.066;8.660;2022-07-29T06:35:11;21.68;66.53
69359;HTU21D;56520;49.066;8.660;2022-07-29T06:37:36;21.73;67.29
69359;HTU21D;56520;49.066;8.660;2022-07-29T06:40:06;21.78;66.81
69359;HTU21D;56520;49.066;8.660;2022-07-29T06:42:50;21.83;65.94
69359;HTU21D;56520;49.066;8.660;2022-07-29T06:45:15;21.85;66.26
69359;HTU21D;56520;49.066;8.660;2022-07-29T06:47:41;21.87;66.13
69359;HTU21D;56520;49.066;8.660;2022-07-29T06:50:07;21.96;64.66
69359;HTU21D;56520;49.066;8.660;2022-07-29T06:52:36;22.05;64.37
69359;HTU21D;56520;49.066;8.660;2022-07-29T06:55:02;22.14;63.86
69359;HTU21D;56520;49.066;8.660;2022-07-29T06:57:27;22.21;63.85
69359;HTU21D;56520;49.066;8.660;2022-07-29T06:59:53;22.27;63.15
69359;HTU21D;56520;49.066;8.660;2022-07-29T07:02:18;22.34;61.79
69359;HTU21D;56520;49.066;8.660;2022-07-29T07:04:43;22.38;60.43
69359;HTU21D;56520;49.066;8.660;2022-07-29T07:07:09;22.43;59.80
69359;HTU21D;56520;49.066;8.660;2022-07-29T07:09:34;22.44;60.02
69359;HTU21D;56520;49.066;8.660;2022-07-29T07:11:59;22.47;59.15
69359;HTU21D;56520;49.066;8.660;2022-07-29T07:14:25;22.48;60.21
69359;HTU21D;56520;49.066;8.660;2022-07-29T07:16:51;22.51;59.02
69359;HTU21D;56520;49.066;8.660;2022-07-29T07:19:17;22.57;59.57
69359;HTU21D;56520;49.066;8.660;2022-07-29T07:21:44;22.67;59.58
69359;HTU21D;56520;49.066;8.660;2022-07-29T07:24:09;22.81;59.46
69359;HTU21D;56520;49.066;8.660;2022-07-29T07:26:35;22.91;59.32
69359;HTU21D;56520;49.066;8.660;2022-07-29T07:29:00;22.97;59.17
69359;HTU21D;56520;49.066;8.660;2022-07-29T07:31:25;23.00;59.33
69359;HTU21D;56520;49.066;8.660;2022-07-29T07:33:51;23.05;59.49
69359;HTU21D;56520;49.066;8.660;2022-07-29T07:36:18;23.13;59.10
69359;HTU21D;56520;49.066;8.660;2022-07-29T07:38:44;23.21;58.90
69359;HTU21D;56520;49.066;8.660;2022-07-29T07:41:09;23.24;58.70
69359;HTU21D;56520;49.066;8.660;2022-07-29T07:43:34;23.26;58.47
69359;HTU21D;56520;49.066;8.660;2022-07-29T07:46:00;23.28;59.09
69359;HTU21D;56520;49.066;8.660;2022-07-29T07:48:25;23.34;59.04
69359;HTU21D;56520;49.066;8.660;2022-07-29T07:50:57;23.44;59.03
69359;HTU21D;56520;49.066;8.660;2022-07-29T07:53:22;23.51;58.50
69359;HTU21D;56520;49.066;8.660;2022-07-29T07:55:47;23.53;59.28
69359;HTU21D;56520;49.066;8.660;2022-07-29T07:58:13;23.67;58.90
69359;HTU21D;56520;49.066;8.660;2022-07-29T08:00:38;23.76;59.11
69359;HTU21D;56520;49.066;8.660;2022-07-29T08:03:04;23.89;58.43
69359;HTU21D;56520;49.066;8.660;2022-07-29T08:05:30;23.97;58.33
69359;HTU21D;56520;49.066;8.660;2022-07-29T08:07:55;23.92;58.63
69359;HTU21D;56520;49.066;8.660;2022-07-29T08:10:21;23.90;58.45
69359;HTU21D;56520;49.066;8.660;2022-07-29T08:13:09;23.94;58.21
69359;HTU21D;56520;49.066;8.660;2022-07-29T08:15:36;24.03;57.65
69359;HTU21D;56520;49.066;8.660;2022-07-29T08:18:03;24.08;58.22
69359;HTU21D;56520;49.066;8.660;2022-07-29T08:20:28;24.12;57.61
69359;HTU21D;56520;49.066;8.660;2022-07-29T08:22:54;24.12;58.00
69359;HTU21D;56520;49.066;8.660;2022-07-29T08:25:20;24.15;58.11
69359;HTU21D;56520;49.066;8.660;2022-07-29T08:27:46;24.18;57.69
69359;HTU21D;56520;49.066;8.660;2022-07-29T08:30:12;24.21;56.32
69359;HTU21D;56520;49.066;8.660;2022-07-29T08:32:37;24.16;57.32
69359;HTU21D;56520;49.066;8.660;2022-07-29T08:35:04;24.21;56.16
69359;HTU21D;56520;49.066;8.660;2022-07-29T08:37:29;24.17;56.77
69359;HTU21D;56520;49.066;8.660;2022-07-29T08:39:54;24.21;56.50
69359;HTU21D;56520;49.066;8.660;2022-07-29T08:42:21;24.18;56.64
69359;HTU21D;56520;49.066;8.660;2022-07-29T08:44:46;24.21;56.57
69359;HTU21D;56520;49.066;8.660;2022-07-29T08:47:14;24.36;56.94
69359;HTU21D;56520;49.066;8.660;2022-07-29T08:49:40;24.57;56.16
69359;HTU21D;56520;49.066;8.660;2022-07-29T08:52:06;24.74;55.84
69359;HTU21D;56520;49.066;8.660;2022-07-29T08:54:32;24.92;54.42
69359;HTU21D;56520;49.066;8.660;2022-07-29T08:56:58;24.98;54.62
69359;HTU21D;56520;49.066;8.660;2022-07-29T08:59:25;25.05;54.71
69359;HTU21D;56520;49.066;8.660;2022-07-29T09:01:52;25.24;53.49
69359;HTU21D;56520;49.066;8.660;2022-07-29T09:04:19;25.39;53.39
69359;HTU21D;56520;49.066;8.660;2022-07-29T09:06:47;25.61;50.59
69359;HTU21D;56520;49.066;8.660;2022-07-29T09:09:13;25.80;51.49
69359;HTU21D;56520;49.066;8.660;2022-07-29T09:11:40;26.01;49.43
69359;HTU21D;56520;49.066;8.660;2022-07-29T09:14:06;26.13;49.89
69359;HTU21D;56520;49.066;8.660;2022-07-29T09:16:55;26.22;49.87
69359;HTU21D;56520;49.066;8.660;2022-07-29T09:19:32;26.28;48.95
69359;HTU21D;56520;49.066;8.660;2022-07-29T09:22:01;26.27;48.06
69359;HTU21D;56520;49.066;8.660;2022-07-29T09:24:39;26.25;46.75
69359;HTU21D;56520;49.066;8.660;2022-07-29T09:27:25;26.31;46.79
69359;HTU21D;56520;49.066;8.660;2022-07-29T09:30:10;26.30;46.89
69359;HTU21D;56520;49.066;8.660;2022-07-29T09:32:56;26.39;46.76
69359;HTU21D;56520;49.066;8.660;2022-07-29T09:35:24;26.57;47.18
69359;HTU21D;56520;49.066;8.660;2022-07-29T09:37:49;26.79;47.32
69359;HTU21D;56520;49.066;8.660;2022-07-29T09:40:17;27.04;47.34
69359;HTU21D;56520;49.066;8.660;2022-07-29T09:42:43;27.30;43.45
69359;HTU21D;56520;49.066;8.660;2022-07-29T09:45:09;27.31;44.69
69359;HTU21D;56520;49.066;8.660;2022-07-29T09:47:46;27.38;44.95
69359;HTU21D;56520;49.066;8.660;2022-07-29T09:50:14;27.60;43.39
69359;HTU21D;56520;49.066;8.660;2022-07-29T09:53:06;27.74;44.19
69359;HTU21D;56520;49.066;8.660;2022-07-29T09:55:31;27.95;43.50
69359;HTU21D;56520;49.066;8.660;2022-07-29T09:58:26;28.25;42.17
69359;HTU21D;56520;49.066;8.660;2022-07-29T10:00:53;28.48;39.72
69359;HTU21D;56520;49.066;8.660;2022-07-29T10:03:19;28.49;40.75
69359;HTU21D;56520;49.066;8.660;2022-07-29T10:05:45;28.44;40.99
69359;HTU21D;56520;49.066;8.660;2022-07-29T10:08:11;28.52;41.48
69359;HTU21D;56520;49.066;8.660;2022-07-29T10:10:42;28.68;40.99
69359;HTU21D;56520;49.066;8.660;2022-07-29T10:13:12;28.90;39.26
69359;HTU21D;56520;49.066;8.660;2022-07-29T10:15:40;28.93;38.66
69359;HTU21D;56520;49.066;8.660;2022-07-29T10:18:07;28.50;40.32
69359;HTU21D;56520;49.066;8.660;2022-07-29T10:20:34;28.18;40.61
69359;HTU21D;56520;49.066;8.660;2022-07-29T10:23:00;27.91;40.75
69359;HTU21D;56520;49.066;8.660;2022-07-29T10:25:25;27.73;41.00
69359;HTU21D;56520;49.066;8.660;2022-07-29T10:27:52;27.73;41.33
69359;HTU21D;56520;49.066;8.660;2022-07-29T10:30:19;27.91;40.44
69359;HTU21D;56520;49.066;8.660;2022-07-29T10:44:06;28.68;39.11
69359;HTU21D;56520;49.066;8.660;2022-07-29T10:46:38;28.93;39.20
69359;HTU21D;56520;49.066;8.660;2022-07-29T10:49:16;29.34;38.61
69359;HTU21D;56520;49.066;8.660;2022-07-29T10:52:11;29.59;37.17
69359;HTU21D;56520;49.066;8.660;2022-07-29T10:54:41;29.60;36.16
69359;HTU21D;56520;49.066;8.660;2022-07-29T10:57:11;29.38;37.67
69359;HTU21D;56520;49.066;8.660;2022-07-29T10:59:38;29.56;38.33
69359;HTU21D;56520;49.066;8.660;2022-07-29T11:07:23;29.51;37.27
69359;HTU21D;56520;49.066;8.660;2022-07-29T11:15:01;29.43;38.72
69359;HTU21D;56520;49.066;8.660;2022-07-29T11:17:28;29.89;36.81
69359;HTU21D;56520;49.066;8.660;2022-07-29T11:22:57;30.35;36.58
69359;HTU21D;56520;49.066;8.660;2022-07-29T11:25:23;30.51;36.85
69359;HTU21D;56520;49.066;8.660;2022-07-29T11:27:49;30.63;36.54
69359;HTU21D;56520;49.066;8.660;2022-07-29T11:30:15;30.80;35.52
69359;HTU21D;56520;49.066;8.660;2022-07-29T11:32:42;30.94;36.45
69359;HTU21D;56520;49.066;8.660;2022-07-29T11:35:23;31.10;36.13
69359;HTU21D;56520;49.066;8.660;2022-07-29T11:38:40;31.22;33.21
69359;HTU21D;56520;49.066;8.660;2022-07-29T11:46:11;30.97;33.81
69359;HTU21D;56520;49.066;8.660;2022-07-29T11:48:41;31.13;34.44
69359;HTU21D;56520;49.066;8.660;2022-07-29T11:51:10;31.25;33.66
69359;HTU21D;56520;49.066;8.660;2022-07-29T11:53:39;31.38;33.28
69359;HTU21D;56520;49.066;8.660;2022-07-29T11:56:08;31.51;33.50
69359;HTU21D;56520;49.066;8.660;2022-07-29T11:58:34;31.59;33.01
69359;HTU21D;56520;49.066;8.660;2022-07-29T12:01:00;31.65;33.79
69359;HTU21D;56520;49.066;8.660;2022-07-29T12:03:27;31.76;33.52
69359;HTU21D;56520;49.066;8.660;2022-07-29T12:05:53;31.81;33.72
69359;HTU21D;56520;49.066;8.660;2022-07-29T12:08:21;32.03;31.98
69359;HTU21D;56520;49.066;8.660;2022-07-29T12:10:49;32.01;31.57
69359;HTU21D;56520;49.066;8.660;2022-07-29T12:13:16;31.78;31.78
69359;HTU21D;56520;49.066;8.660;2022-07-29T12:15:50;31.37;31.66
69359;HTU21D;56520;49.066;8.660;2022-07-29T12:18:18;30.97;32.95
69359;HTU21D;56520;49.066;8.660;2022-07-29T12:20:45;30.69;33.49
69359;HTU21D;56520;49.066;8.660;2022-07-29T12:23:11;30.32;33.96
69359;HTU21D;56520;49.066;8.660;2022-07-29T12:25:38;29.94;34.53
69359;HTU21D;56520;49.066;8.660;2022-07-29T12:28:14;29.70;35.43
69359;HTU21D;56520;49.066;8.660;2022-07-29T12:30:48;29.52;36.18
69359;HTU21D;56520;49.066;8.660;2022-07-29T12:33:27;29.41;36.42
69359;HTU21D;56520;49.066;8.660;2022-07-29T12:36:02;29.28;36.77
69359;HTU21D;56520;49.066;8.660;2022-07-29T12:38:28;29.22;36.91
69359;HTU21D;56520;49.066;8.660;2022-07-29T12:40:54;29.17;37.46
69359;HTU21D;56520;49.066;8.660;2022-07-29T12:43:24;29.15;37.98
69359;HTU21D;56520;49.066;8.660;2022-07-29T12:45:52;29.22;37.70
69359;HTU21D;56520;49.066;8.660;2022-07-29T12:48:35;29.29;36.96
69359;HTU21D;56520;49.066;8.660;2022-07-29T12:51:03;29.27;37.19
69359;HTU21D;56520;49.066;8.660;2022-07-29T12:53:29;29.26;37.26
69359;HTU21D;56520;49.066;8.660;2022-07-29T12:55:57;29.37;37.50
69359;HTU21D;56520;49.066;8.660;2022-07-29T13:01:10;29.47;36.84
69359;HTU21D;56520;49.066;8.660;2022-07-29T13:06:39;29.48;36.92
69359;HTU21D;56520;49.066;8.660;2022-07-29T13:11:39;29.39;37.05
69359;HTU21D;56520;49.066;8.660;2022-07-29T13:14:05;29.38;37.40
69359;HTU21D;56520;49.066;8.660;2022-07-29T13:16:31;29.36;36.82
69359;HTU21D;56520;49.066;8.660;2022-07-29T13:21:29;29.26;36.89
69359;HTU21D;56520;49.066;8.660;2022-07-29T13:23:54;29.20;37.46
69359;HTU21D;56520;49.066;8.660;2022-07-29T13:26:20;29.26;36.81
69359;HTU21D;56520;49.066;8.660;2022-07-29T13:28:46;29.30;36.79
69359;HTU21D;56520;49.066;8.660;2022-07-29T13:31:11;29.34;36.92
69359;HTU21D;56520;49.066;8.660;2022-07-29T13:33:36;29.47;35.90
69359;HTU21D;56520;49.066;8.660;2022-07-29T13:36:02;29.48;35.14
69359;HTU21D;56520;49.066;8.660;2022-07-29T13:38:27;29.51;35.22
69359;HTU21D;56520;49.066;8.660;2022-07-29T13:40:53;29.62;34.96
69359;HTU21D;56520;49.066;8.660;2022-07-29T13:43:18;29.77;32.99
69359;HTU21D;56520;49.066;8.660;2022-07-29T13:45:44;29.76;33.25
69359;HTU21D;56520;49.066;8.660;2022-07-29T13:48:09;29.68;33.51
69359;HTU21D;56520;49.066;8.660;2022-07-29T13:50:36;29.68;32.46
69359;HTU21D;56520;49.066;8.660;2022-07-29T13:53:01;29.54;33.38
69359;HTU21D;56520;49.066;8.660;2022-07-29T13:55:27;29.61;33.83
69359;HTU21D;56520;49.066;8.660;2022-07-29T13:57:53;29.67;32.86
69359;HTU21D;56520;49.066;8.660;2022-07-29T14:00:18;29.65;33.38
69359;HTU21D;56520;49.066;8.660;2022-07-29T14:02:44;29.65;33.90
69359;HTU21D;56520;49.066;8.660;2022-07-29T14:05:10;29.67;33.48
69359;HTU21D;56520;49.066;8.660;2022-07-29T14:07:36;29.66;33.58
69359;HTU21D;56520;49.066;8.660;2022-07-29T14:10:04;29.75;33.71
69359;HTU21D;56520;49.066;8.660;2022-07-29T14:12:30;29.82;32.74
69359;HTU21D;56520;49.066;8.660;2022-07-29T14:14:56;29.78;31.82
69359;HTU21D;56520;49.066;8.660;2022-07-29T14:17:21;29.73;32.12
69359;HTU21D;56520;49.066;8.660;2022-07-29T14:19:47;29.80;31.51
69359;HTU21D;56520;49.066;8.660;2022-07-29T14:22:13;29.77;31.73
69359;HTU21D;56520;49.066;8.660;2022-07-29T14:24:38;29.79;30.76
69359;HTU21D;56520;49.066;8.660;2022-07-29T14:27:05;29.91;30.16
69359;HTU21D;56520;49.066;8.660;2022-07-29T14:29:31;30.00;30.03
69359;HTU21D;56520;49.066;8.660;2022-07-29T14:31:56;30.04;29.81
69359;HTU21D;56520;49.066;8.660;2022-07-29T14:34:22;30.04;29.84
69359;HTU21D;56520;49.066;8.660;2022-07-29T14:36:47;30.01;29.30
69359;HTU21D;56520;49.066;8.660;2022-07-29T14:39:13;29.96;29.71
69359;HTU21D;56520;49.066;8.660;2022-07-29T14:41:40;29.91;30.76
69359;HTU21D;56520;49.066;8.660;2022-07-29T14:44:06;30.02;29.49
69359;HTU21D;56520;49.066;8.660;2022-07-29T14:46:31;29.77;30.32
69359;HTU21D;56520;49.066;8.660;2022-07-29T14:48:57;29.61;31.00
69359;HTU21D;56520;49.066;8.660;2022-07-29T14:51:22;29.56;30.50
69359;HTU21D;56520;49.066;8.660;2022-07-29T14:53:48;29.51;31.12
69359;HTU21D;56520;49.066;8.660;2022-07-29T14:56:13;29.44;31.24
69359;HTU21D;56520;49.066;8.660;2022-07-29T14:58:39;29.39;30.74
69359;HTU21D;56520;49.066;8.660;2022-07-29T15:01:04;29.27;30.85
69359;HTU21D;56520;49.066;8.660;2022-07-29T15:03:31;29.13;31.21
69359;HTU21D;56520;49.066;8.660;2022-07-29T15:05:56;29.03;31.67
69359;HTU21D;56520;49.066;8.660;2022-07-29T15:08:21;29.01;30.65
69359;HTU21D;56520;49.066;8.660;2022-07-29T15:10:47;28.92;30.35
69359;HTU21D;56520;49.066;8.660;2022-07-29T15:13:12;28.91;30.48
69359;HTU21D;56520;49.066;8.660;2022-07-29T15:15:38;28.97;30.66
69359;HTU21D;56520;49.066;8.660;2022-07-29T15:18:04;29.04;30.52
69359;HTU21D;56520;49.066;8.660;2022-07-29T15:20:29;29.04;30.66
69359;HTU21D;56520;49.066;8.660;2022-07-29T15:22:55;29.11;30.94
69359;HTU21D;56520;49.066;8.660;2022-07-29T15:25:22;29.16;30.48
69359;HTU21D;56520;49.066;8.660;2022-07-29T15:27:47;29.16;30.98
69359;HTU21D;56520;49.066;8.660;2022-07-29T15:30:13;29.21;30.13
69359;HTU21D;56520;49.066;8.660;2022-07-29T15:32:41;29.17;30.22
69359;HTU21D;56520;49.066;8.660;2022-07-29T15:35:07;29.12;30.06
69359;HTU21D;56520;49.066;8.660;2022-07-29T15:37:32;29.05;30.42
69359;HTU21D;56520;49.066;8.660;2022-07-29T15:40:00;28.99;30.93
69359;HTU21D;56520;49.066;8.660;2022-07-29T15:42:25;29.02;30.96
69359;HTU21D;56520;49.066;8.660;2022-07-29T15:44:51;29.11;30.14
69359;HTU21D;56520;49.066;8.660;2022-07-29T15:47:16;29.21;29.45
69359;HTU21D;56520;49.066;8.660;2022-07-29T15:49:41;29.27;29.26
69359;HTU21D;56520;49.066;8.660;2022-07-29T15:52:09;29.41;28.85
69359;HTU21D;56520;49.066;8.660;2022-07-29T15:54:36;29.57;29.01
69359;HTU21D;56520;49.066;8.660;2022-07-29T15:57:03;29.78;28.56
69359;HTU21D;56520;49.066;8.660;2022-07-29T15:59:29;29.76;27.82
69359;HTU21D;56520;49.066;8.660;2022-07-29T16:01:54;29.62;27.78
69359;HTU21D;56520;49.066;8.660;2022-07-29T16:04:20;29.48;27.90
69359;HTU21D;56520;49.066;8.660;2022-07-29T16:06:47;29.44;28.13